Time;durP1;ratioP1;P1;durP2;ratioP2;P2;SDS_P1;SDS_P2;PMS_P1;PMS_P2;Temp;Humidity;BMP_temperature;BMP_pressure;BME280_temperature;BME280_humidity;BME280_pressure;Samples;Min_cycle;Max_cycle;Signal;HPM_P1;HPM_P2
2022/01/16 00:06:51;;;;;;;27.38;15.70;;;;;;;;;;20841283;28;20061;-61
2022/01/16 00:16:54;;;;;;;23.92;15.38;;;;;;;;;;20838628;28;20124;-62
2022/01/16 00:26:56;;;;;;;19.25;12.70;;;;;;;;;;20838986;28;20072;-62
2022/01/16 00:36:59;;;;;;;18.23;11.45;;;;;;;;;;20839164;28;20119;-62
2022/01/16 00:47:01;;;;;;;18.02;10.57;;;;;;;;;;20837607;28;20131;-61
2022/01/16 00:57:03;;;;;;;15.68;10.73;;;;;;;;;;20836955;28;20052;-61
2022/01/16 01:07:05;;;;;;;12.57;9.55;;;;;;;;;;20836116;28;20478;-63
2022/01/16 01:17:09;;;;;;;13.82;10.00;;;;;;;;;;20834693;28;20139;-63
2022/01/16 01:27:19;;;;;;;16.83;10.93;;;;;;;;;;20837576;28;20084;-62
2022/01/16 01:37:21;;;;;;;14.05;10.32;;;;;;;;;;20835103;28;20476;-63
2022/01/16 01:57:46;;;;;;;14.07;10.60;;;;;;;;;;20832139;28;20111;-62
2022/01/16 02:07:48;;;;;;;20.23;11.48;;;;;;;;;;20831090;28;20084;-62
2022/01/16 02:38:23;;;;;;;19.80;12.27;;;;;;;;;;20829707;28;20053;-62
2022/01/16 02:48:25;;;;;;;19.63;13.15;;;;;;;;;;20829239;28;20050;-62
2022/01/16 02:58:27;;;;;;;24.75;13.75;;;;;;;;;;20829358;28;20052;-63
2022/01/16 03:08:28;;;;;;;18.90;12.52;;;;;;;;;;20828867;28;20053;-63
2022/01/16 03:28:52;;;;;;;15.55;10.73;;;;;;;;;;20828614;28;20056;-64
2022/01/16 03:38:57;;;;;;;16.75;10.80;;;;;;;;;;20831999;28;20522;-63
2022/01/16 03:48:59;;;;;;;18.90;10.85;;;;;;;;;;20842191;28;20050;-63
2022/01/16 03:59:05;;;;;;;16.67;9.17;;;;;;;;;;20841992;28;20176;-63
2022/01/16 04:09:08;;;;;;;15.65;10.40;;;;;;;;;;20841996;28;20508;-63
2022/01/16 04:19:12;;;;;;;18.73;11.50;;;;;;;;;;20841376;28;20100;-64
2022/01/16 04:29:15;;;;;;;20.67;11.65;;;;;;;;;;20839417;28;20416;-63
2022/01/16 04:39:20;;;;;;;17.50;10.95;;;;;;;;;;20838200;28;20132;-63
2022/01/16 04:49:22;;;;;;;17.55;11.60;;;;;;;;;;20836422;28;20049;-63
2022/01/16 04:59:24;;;;;;;17.30;11.27;;;;;;;;;;20836707;28;20050;-63
2022/01/16 05:09:26;;;;;;;19.70;12.15;;;;;;;;;;20836257;28;20088;-63
2022/01/16 05:19:29;;;;;;;17.60;12.18;;;;;;;;;;20835901;28;20049;-63
2022/01/16 05:29:30;;;;;;;21.70;11.93;;;;;;;;;;20834843;28;20413;-63
2022/01/16 05:39:42;;;;;;;17.07;11.40;;;;;;;;;;20834008;28;20515;-63
2022/01/16 05:49:48;;;;;;;15.95;10.73;;;;;;;;;;20833068;28;20056;-62
2022/01/16 05:59:50;;;;;;;16.60;11.20;;;;;;;;;;20831150;28;20058;-63
2022/01/16 06:09:54;;;;;;;17.07;10.37;;;;;;;;;;20834559;28;20501;-64
2022/01/16 06:19:57;;;;;;;18.20;10.98;;;;;;;;;;20832987;28;20077;-63
2022/01/16 06:30:00;;;;;;;18.93;11.27;;;;;;;;;;20831020;28;20068;-63
2022/01/16 06:40:04;;;;;;;15.73;10.30;;;;;;;;;;20830287;28;20068;-63
2022/01/16 06:50:08;;;;;;;16.17;9.60;;;;;;;;;;20829624;28;20112;-64
2022/01/16 07:00:10;;;;;;;17.38;10.77;;;;;;;;;;20829733;28;20072;-64
2022/01/16 07:10:12;;;;;;;19.42;11.60;;;;;;;;;;20828641;28;20049;-63
2022/01/16 07:20:16;;;;;;;18.23;11.40;;;;;;;;;;20843286;28;20046;-62
2022/01/16 07:30:19;;;;;;;16.17;10.77;;;;;;;;;;20844149;28;20057;-64
2022/01/16 07:40:21;;;;;;;17.33;12.23;;;;;;;;;;20846046;28;20041;-63
2022/01/16 07:50:24;;;;;;;20.47;10.97;;;;;;;;;;20842881;28;20057;-63
2022/01/16 08:00:26;;;;;;;15.43;10.80;;;;;;;;;;20841858;28;20049;-63
2022/01/16 08:10:28;;;;;;;18.87;11.30;;;;;;;;;;20841118;28;20142;-64
2022/01/16 08:20:31;;;;;;;24.93;12.60;;;;;;;;;;20840384;28;20130;-64
2022/01/16 08:30:33;;;;;;;18.70;12.00;;;;;;;;;;20838960;28;20103;-62
2022/01/16 08:40:35;;;;;;;17.13;10.53;;;;;;;;;;20838520;28;20045;-63
2022/01/16 08:50:38;;;;;;;16.77;11.15;;;;;;;;;;20837268;28;20123;-63
2022/01/16 09:00:43;;;;;;;21.15;12.85;;;;;;;;;;20835396;28;20084;-63
2022/01/16 09:10:45;;;;;;;17.70;10.03;;;;;;;;;;20836491;28;20046;-63
2022/01/16 09:20:49;;;;;;;20.20;10.68;;;;;;;;;;20835781;28;20068;-64
2022/01/16 09:30:51;;;;;;;14.48;10.25;;;;;;;;;;20834531;28;20061;-63
2022/01/16 09:40:53;;;;;;;21.15;13.02;;;;;;;;;;20832948;28;20049;-63
2022/01/16 09:50:57;;;;;;;21.50;11.20;;;;;;;;;;20833287;28;20490;-62
2022/01/16 10:00:58;;;;;;;19.38;12.63;;;;;;;;;;20831834;28;20522;-61
2022/01/16 10:11:19;;;;;;;15.80;10.25;;;;;;;;;;20831110;28;20050;-63
2022/01/16 10:21:34;;;;;;;15.80;10.43;;;;;;;;;;20831072;28;20482;-61
2022/01/16 10:31:36;;;;;;;18.10;12.70;;;;;;;;;;20830198;28;20545;-61
2022/01/16 10:41:40;;;;;;;21.10;13.55;;;;;;;;;;20829519;28;20123;-62
2022/01/16 10:52:03;;;;;;;20.77;12.63;;;;;;;;;;20838246;28;20045;-62
2022/01/16 11:02:08;;;;;;;19.95;13.38;;;;;;;;;;20845782;28;20387;-61
2022/01/16 11:12:10;;;;;;;21.70;15.20;;;;;;;;;;20844992;28;20513;-62
2022/01/16 11:22:22;;;;;;;24.42;16.13;;;;;;;;;;20843684;28;20053;-62
2022/01/16 11:32:25;;;;;;;28.15;17.35;;;;;;;;;;20842372;28;20057;-62
2022/01/16 11:42:36;;;;;;;26.80;18.92;;;;;;;;;;20841499;28;20103;-61
2022/01/16 11:52:41;;;;;;;24.83;16.73;;;;;;;;;;20839532;28;20050;-64
2022/01/16 12:02:45;;;;;;;22.93;16.10;;;;;;;;;;20839865;28;20045;-61
2022/01/16 12:12:46;;;;;;;24.38;15.32;;;;;;;;;;20840054;28;20148;-61
2022/01/16 12:22:54;;;;;;;27.40;15.52;;;;;;;;;;20838978;28;20054;-61
2022/01/16 12:32:59;;;;;;;26.27;16.23;;;;;;;;;;20839029;28;20110;-62
2022/01/16 12:43:01;;;;;;;20.67;13.35;;;;;;;;;;20837594;28;20522;-63
2022/01/16 12:53:04;;;;;;;21.80;13.73;;;;;;;;;;20836207;28;20080;-63
2022/01/16 13:03:06;;;;;;;19.73;14.40;;;;;;;;;;20836376;28;20041;-62
2022/01/16 13:13:11;;;;;;;19.92;14.13;;;;;;;;;;20835036;28;20148;-62
2022/01/16 13:23:17;;;;;;;18.45;11.85;;;;;;;;;;20890291;28;20047;-69
2022/01/16 13:33:19;;;;;;;21.20;13.43;;;;;;;;;;20914524;28;20053;-64
2022/01/16 13:43:29;;;;;;;16.08;11.40;;;;;;;;;;20917396;28;20041;-64
2022/01/16 13:53:35;;;;;;;18.55;12.20;;;;;;;;;;20916596;28;20057;-67
2022/01/16 14:03:46;;;;;;;25.70;15.65;;;;;;;;;;20914066;28;20056;-66
2022/01/16 14:13:55;;;;;;;21.33;13.50;;;;;;;;;;20914311;28;20111;-64
2022/01/16 14:23:57;;;;;;;22.08;13.13;;;;;;;;;;20912939;28;20489;-66
2022/01/16 14:34:00;;;;;;;18.98;12.65;;;;;;;;;;20914208;28;20052;-61
2022/01/16 14:44:03;;;;;;;19.73;13.15;;;;;;;;;;20912357;28;20067;-66
2022/01/16 14:54:05;;;;;;;20.40;14.60;;;;;;;;;;20912602;28;20057;-62
2022/01/16 15:04:09;;;;;;;21.38;13.57;;;;;;;;;;20911650;28;20055;-65
2022/01/16 15:14:11;;;;;;;21.65;13.43;;;;;;;;;;20909223;28;20493;-66
2022/01/16 15:24:16;;;;;;;23.30;14.75;;;;;;;;;;20910528;28;20099;-68
2022/01/16 15:34:20;;;;;;;20.58;12.50;;;;;;;;;;20913620;28;20417;-64
2022/01/16 15:44:23;;;;;;;19.02;12.77;;;;;;;;;;20925872;28;20052;-66
2022/01/16 15:54:28;;;;;;;21.05;13.20;;;;;;;;;;20925017;28;20053;-66
2022/01/16 16:04:31;;;;;;;18.23;11.60;;;;;;;;;;20925269;28;20056;-66
2022/01/16 16:14:34;;;;;;;25.63;17.02;;;;;;;;;;20924055;28;20060;-67
2022/01/16 16:24:36;;;;;;;20.50;12.85;;;;;;;;;;20922770;28;20052;-66
2022/01/16 16:34:39;;;;;;;23.17;12.88;;;;;;;;;;20923481;28;20049;-67
2022/01/16 16:44:43;;;;;;;18.23;11.85;;;;;;;;;;20923888;28;20503;-67
2022/01/16 16:54:45;;;;;;;22.38;13.35;;;;;;;;;;20919268;28;20134;-66
2022/01/16 17:04:48;;;;;;;17.08;12.65;;;;;;;;;;20919152;28;20060;-66
2022/01/16 17:14:51;;;;;;;19.42;12.68;;;;;;;;;;20918815;28;20057;-66
2022/01/16 17:24:56;;;;;;;26.17;13.95;;;;;;;;;;20918223;28;20049;-65
2022/01/16 17:34:58;;;;;;;20.20;12.63;;;;;;;;;;20916527;28;20049;-66
2022/01/16 17:45:00;;;;;;;28.25;15.45;;;;;;;;;;20916362;28;20052;-66
2022/01/16 17:55:02;;;;;;;21.42;14.73;;;;;;;;;;20914863;28;20517;-65
2022/01/16 18:05:08;;;;;;;25.42;15.85;;;;;;;;;;20913607;28;20090;-65
2022/01/16 18:15:10;;;;;;;22.00;14.43;;;;;;;;;;20914441;28;20496;-65
2022/01/16 18:25:11;;;;;;;22.60;15.70;;;;;;;;;;20912854;28;20328;-64
2022/01/16 18:35:15;;;;;;;26.00;16.48;;;;;;;;;;20912945;28;20056;-66
2022/01/16 18:45:19;;;;;;;31.95;16.77;;;;;;;;;;20911948;28;20136;-67
2022/01/16 18:55:20;;;;;;;35.83;20.05;;;;;;;;;;20911398;28;20140;-63
2022/01/16 19:05:22;;;;;;;29.65;18.17;;;;;;;;;;20911512;28;20045;-65
2022/01/16 19:15:24;;;;;;;35.47;20.02;;;;;;;;;;20924914;28;20080;-63
2022/01/16 19:25:26;;;;;;;30.92;18.95;;;;;;;;;;20927325;28;20099;-65
2022/01/16 19:35:28;;;;;;;38.42;24.08;;;;;;;;;;20926993;28;20449;-67
2022/01/16 19:45:31;;;;;;;38.75;23.23;;;;;;;;;;20925610;28;20107;-66
2022/01/16 19:55:33;;;;;;;26.05;16.00;;;;;;;;;;20925164;28;20057;-66
2022/01/16 20:05:35;;;;;;;23.52;14.75;;;;;;;;;;20923802;28;20045;-62
2022/01/16 20:15:39;;;;;;;25.63;13.35;;;;;;;;;;20925400;28;20488;-62
2022/01/16 20:25:42;;;;;;;24.05;15.63;;;;;;;;;;20921472;28;20049;-61
2022/01/16 20:35:44;;;;;;;22.70;13.10;;;;;;;;;;20921451;28;20470;-61
2022/01/16 20:45:46;;;;;;;18.05;12.43;;;;;;;;;;20921114;28;20053;-63
2022/01/16 20:55:48;;;;;;;20.63;13.80;;;;;;;;;;20920138;28;20417;-62
2022/01/16 21:05:50;;;;;;;20.20;12.23;;;;;;;;;;20919323;28;20127;-62
2022/01/16 21:15:54;;;;;;;18.80;12.45;;;;;;;;;;20920100;28;20049;-62
2022/01/16 21:25:58;;;;;;;22.40;14.18;;;;;;;;;;20917585;28;20409;-63
2022/01/16 21:36:00;;;;;;;18.38;11.68;;;;;;;;;;20915773;28;20052;-63
2022/01/16 21:46:02;;;;;;;19.25;12.32;;;;;;;;;;20916498;28;20060;-62
2022/01/16 21:56:06;;;;;;;21.60;14.13;;;;;;;;;;20915349;28;20129;-66
2022/01/16 22:06:08;;;;;;;23.48;15.68;;;;;;;;;;20915236;28;20045;-63
2022/01/16 22:16:10;;;;;;;25.58;14.27;;;;;;;;;;20912764;28;20445;-63
2022/01/16 22:26:12;;;;;;;21.48;13.23;;;;;;;;;;20912623;28;20072;-61
2022/01/16 22:36:14;;;;;;;24.15;15.68;;;;;;;;;;20912702;28;20056;-63
2022/01/16 22:46:16;;;;;;;23.65;15.68;;;;;;;;;;20912468;28;20095;-61
2022/01/16 22:56:18;;;;;;;23.60;14.50;;;;;;;;;;20912025;28;20060;-61
2022/01/16 23:06:19;;;;;;;24.85;15.55;;;;;;;;;;20911821;28;20053;-62
2022/01/16 23:16:21;;;;;;;21.60;14.20;;;;;;;;;;20911135;28;20049;-62
2022/01/16 23:26:23;;;;;;;25.17;15.73;;;;;;;;;;20910602;28;20049;-61
2022/01/16 23:36:24;;;;;;;25.95;14.80;;;;;;;;;;20910081;28;20073;-61
2022/01/16 23:46:26;;;;;;;20.88;14.30;;;;;;;;;;20910553;28;20052;-63
2022/01/16 23:56:28;;;;;;;26.77;14.55;;;;;;;;;;20914930;28;20463;-63
